sensor_id;sensor_type;location;lat;lon;timestamp;pressure;altitude;pressure_sealevel;temperature;humidity
56334;BME280;42240;53.626;55.886;2024-03-25T00:01:26;76335.34;;;-145.10;97.87
56334;BME280;42240;53.626;55.886;2024-03-25T00:02:58;76406.53;;;-145.10;97.20
56334;BME280;42240;53.626;55.886;2024-03-25T00:04:31;76394.66;;;-145.10;97.41
56334;BME280;42240;53.626;55.886;2024-03-25T00:06:07;76390.69;;;-145.10;96.90
56334;BME280;42240;53.626;55.886;2024-03-25T00:07:39;76404.53;;;-145.10;96.31
56334;BME280;42240;53.626;55.886;2024-03-25T00:09:12;76412.44;;;-145.10;96.45
56334;BME280;42240;53.626;55.886;2024-03-25T00:10:46;76424.31;;;-145.10;96.20
56334;BME280;42240;53.626;55.886;2024-03-25T00:12:18;76430.25;;;-145.10;97.14
56334;BME280;42240;53.626;55.886;2024-03-25T00:13:51;76396.63;;;-145.10;96.54
56334;BME280;42240;53.626;55.886;2024-03-25T00:15:23;76351.16;;;-145.10;96.04
56334;BME280;42240;53.626;55.886;2024-03-25T00:16:56;76416.41;;;-145.10;96.28
56334;BME280;42240;53.626;55.886;2024-03-25T00:18:28;76400.59;;;-145.10;95.69
56334;BME280;42240;53.626;55.886;2024-03-25T00:20:00;76440.13;;;-145.10;96.41
56334;BME280;42240;53.626;55.886;2024-03-25T00:21:34;76406.53;;;-145.10;96.78
56334;BME280;42240;53.626;55.886;2024-03-25T00:23:10;76434.19;;;-145.10;97.80
56334;BME280;42240;53.626;55.886;2024-03-25T00:24:43;76471.78;;;-145.10;98.28
56334;BME280;42240;53.626;55.886;2024-03-25T00:26:15;76505.38;;;-145.10;100.00
56334;BME280;42240;53.626;55.886;2024-03-25T00:27:47;76438.16;;;-145.10;99.55
56334;BME280;42240;53.626;55.886;2024-03-25T00:29:19;76442.13;;;-145.10;99.63
56334;BME280;42240;53.626;55.886;2024-03-25T00:30:52;76394.66;;;-145.10;98.53
56334;BME280;42240;53.626;55.886;2024-03-25T00:32:24;76414.44;;;-145.10;98.17
56334;BME280;42240;53.626;55.886;2024-03-25T00:33:57;76434.19;;;-145.10;98.16
56334;BME280;42240;53.626;55.886;2024-03-25T00:35:29;76426.28;;;-145.10;98.10
56334;BME280;42240;53.626;55.886;2024-03-25T00:37:01;76438.16;;;-145.10;98.96
56334;BME280;42240;53.626;55.886;2024-03-25T00:38:34;76446.06;;;-145.10;99.33
56334;BME280;42240;53.626;55.886;2024-03-25T00:40:10;76428.28;;;-145.10;99.04
56334;BME280;42240;53.626;55.886;2024-03-25T00:41:43;76453.97;;;-145.10;98.82
56334;BME280;42240;53.626;55.886;2024-03-25T00:43:16;76418.38;;;-145.10;98.45
56334;BME280;42240;53.626;55.886;2024-03-25T00:44:49;76442.13;;;-145.10;98.03
56334;BME280;42240;53.626;55.886;2024-03-25T00:46:21;76374.88;;;-145.10;96.97
56334;BME280;42240;53.626;55.886;2024-03-25T00:47:54;76467.81;;;-145.10;98.61
56334;BME280;42240;53.626;55.886;2024-03-25T00:49:26;76519.22;;;-145.10;99.64
56334;BME280;42240;53.626;55.886;2024-03-25T00:50:58;76471.78;;;-145.10;100.00
56334;BME280;42240;53.626;55.886;2024-03-25T00:52:36;76493.53;;;-145.10;100.00
56334;BME280;42240;53.626;55.886;2024-03-25T00:54:09;76483.63;;;-145.10;100.00
56334;BME280;42240;53.626;55.886;2024-03-25T00:55:44;76465.84;;;-145.10;100.00
56334;BME280;42240;53.626;55.886;2024-03-25T00:57:17;76471.78;;;-145.10;100.00
56334;BME280;42240;53.626;55.886;2024-03-25T00:58:50;76493.53;;;-145.10;100.00
56334;BME280;42240;53.626;55.886;2024-03-25T01:00:23;76477.72;;;-145.10;100.00
56334;BME280;42240;53.626;55.886;2024-03-25T01:02:00;76455.97;;;-145.10;99.80
56334;BME280;42240;53.626;55.886;2024-03-25T01:03:35;76485.63;;;-145.10;99.30
56334;BME280;42240;53.626;55.886;2024-03-25T01:05:09;76434.19;;;-145.10;98.39
56334;BME280;42240;53.626;55.886;2024-03-25T01:06:42;76434.19;;;-145.10;98.28
56334;BME280;42240;53.626;55.886;2024-03-25T01:08:14;76485.63;;;-145.10;99.63
56334;BME280;42240;53.626;55.886;2024-03-25T01:09:47;76485.63;;;-145.10;100.00
56334;BME280;42240;53.626;55.886;2024-03-25T01:11:19;76493.53;;;-145.10;100.00
56334;BME280;42240;53.626;55.886;2024-03-25T01:12:52;76465.84;;;-145.10;99.66
56334;BME280;42240;53.626;55.886;2024-03-25T01:14:29;76489.56;;;-145.10;99.62
56334;BME280;42240;53.626;55.886;2024-03-25T01:16:01;76434.19;;;-145.10;99.13
56334;BME280;42240;53.626;55.886;2024-03-25T01:17:33;76453.97;;;-145.10;98.92
56334;BME280;42240;53.626;55.886;2024-03-25T01:19:06;76436.19;;;-145.10;98.67
56334;BME280;42240;53.626;55.886;2024-03-25T01:20:38;76426.28;;;-145.10;97.48
56334;BME280;42240;53.626;55.886;2024-03-25T01:22:11;76455.97;;;-145.10;97.37
56334;BME280;42240;53.626;55.886;2024-03-25T01:23:43;76459.91;;;-145.10;97.91
56334;BME280;42240;53.626;55.886;2024-03-25T01:25:15;76432.22;;;-145.10;97.24
56334;BME280;42240;53.626;55.886;2024-03-25T01:26:49;76450.03;;;-145.10;97.52
56334;BME280;42240;53.626;55.886;2024-03-25T01:28:21;76410.47;;;-145.10;97.06
56334;BME280;42240;53.626;55.886;2024-03-25T01:29:57;76351.16;;;-145.10;95.62
56334;BME280;42240;53.626;55.886;2024-03-25T01:31:33;76406.53;;;-145.10;95.36
56334;BME280;42240;53.626;55.886;2024-03-25T01:33:06;76450.03;;;-145.10;96.13
56334;BME280;42240;53.626;55.886;2024-03-25T01:34:41;76370.94;;;-145.10;96.00
56334;BME280;42240;53.626;55.886;2024-03-25T01:36:14;76408.50;;;-145.10;95.61
56334;BME280;42240;53.626;55.886;2024-03-25T01:37:49;76384.78;;;-145.10;94.79
56334;BME280;42240;53.626;55.886;2024-03-25T01:39:21;76422.34;;;-145.10;95.12
56334;BME280;42240;53.626;55.886;2024-03-25T01:40:54;76428.28;;;-145.10;95.02
56334;BME280;42240;53.626;55.886;2024-03-25T01:42:28;76418.38;;;-145.10;94.87
56334;BME280;42240;53.626;55.886;2024-03-25T01:44:01;76452.00;;;-145.10;96.27
56334;BME280;42240;53.626;55.886;2024-03-25T01:45:37;76455.97;;;-145.10;96.93
56334;BME280;42240;53.626;55.886;2024-03-25T01:47:12;76529.13;;;-145.10;97.52
56334;BME280;42240;53.626;55.886;2024-03-25T01:48:45;76576.56;;;-145.10;100.00
56334;BME280;42240;53.626;55.886;2024-03-25T01:50:19;76572.63;;;-145.10;100.00
56334;BME280;42240;53.626;55.886;2024-03-25T01:51:51;76542.97;;;-145.10;100.00
56334;BME280;42240;53.626;55.886;2024-03-25T01:53:24;76594.38;;;-145.10;100.00
56334;BME280;42240;53.626;55.886;2024-03-25T01:54:58;76574.59;;;-145.10;100.00
56334;BME280;42240;53.626;55.886;2024-03-25T01:56:32;76552.84;;;-145.10;100.00
56334;BME280;42240;53.626;55.886;2024-03-25T01:58:05;76564.72;;;-145.10;100.00
56334;BME280;42240;53.626;55.886;2024-03-25T01:59:39;76620.06;;;-145.10;100.00
56334;BME280;42240;53.626;55.886;2024-03-25T02:01:12;76588.44;;;-145.10;100.00
56334;BME280;42240;53.626;55.886;2024-03-25T02:02:48;76606.22;;;-145.10;100.00
56334;BME280;42240;53.626;55.886;2024-03-25T02:04:21;76564.72;;;-145.10;100.00
56334;BME280;42240;53.626;55.886;2024-03-25T02:06:07;76529.13;;;-145.10;100.00
56334;BME280;42240;53.626;55.886;2024-03-25T02:07:43;76548.88;;;-145.10;100.00
56334;BME280;42240;53.626;55.886;2024-03-25T02:09:15;76610.19;;;-145.10;100.00
56334;BME280;42240;53.626;55.886;2024-03-25T02:10:48;76574.59;;;-145.10;100.00
56334;BME280;42240;53.626;55.886;2024-03-25T02:12:20;76548.88;;;-145.10;100.00
56334;BME280;42240;53.626;55.886;2024-03-25T02:13:53;76544.94;;;-145.10;100.00
56334;BME280;42240;53.626;55.886;2024-03-25T02:15:26;76540.97;;;-145.10;100.00
56334;BME280;42240;53.626;55.886;2024-03-25T02:17:00;76517.25;;;-145.10;100.00
56334;BME280;42240;53.626;55.886;2024-03-25T02:18:36;76574.59;;;-145.10;100.00
56334;BME280;42240;53.626;55.886;2024-03-25T02:20:12;76531.09;;;-145.10;100.00
56334;BME280;42240;53.626;55.886;2024-03-25T02:21:47;76548.88;;;-145.10;100.00
56334;BME280;42240;53.626;55.886;2024-03-25T02:23:23;76568.66;;;-145.10;100.00
56334;BME280;42240;53.626;55.886;2024-03-25T02:24:57;76592.41;;;-145.10;100.00
56334;BME280;42240;53.626;55.886;2024-03-25T02:26:32;76604.25;;;-145.10;100.00
56334;BME280;42240;53.626;55.886;2024-03-25T02:28:05;76616.13;;;-145.10;100.00
56334;BME280;42240;53.626;55.886;2024-03-25T02:29:37;76542.97;;;-145.10;100.00
56334;BME280;42240;53.626;55.886;2024-03-25T02:31:09;76566.69;;;-145.10;100.00
56334;BME280;42240;53.626;55.886;2024-03-25T02:32:42;76568.66;;;-145.10;100.00
56334;BME280;42240;53.626;55.886;2024-03-25T02:34:14;76560.75;;;-145.10;100.00
56334;BME280;42240;53.626;55.886;2024-03-25T02:35:47;76560.75;;;-145.10;100.00
56334;BME280;42240;53.626;55.886;2024-03-25T02:37:19;76598.31;;;-145.10;100.00
56334;BME280;42240;53.626;55.886;2024-03-25T02:38:51;76562.72;;;-145.10;100.00
56334;BME280;42240;53.626;55.886;2024-03-25T02:40:25;76574.59;;;-145.10;100.00
56334;BME280;42240;53.626;55.886;2024-03-25T02:41:57;76572.63;;;-145.10;100.00
56334;BME280;42240;53.626;55.886;2024-03-25T02:43:33;76529.13;;;-145.10;100.00
56334;BME280;42240;53.626;55.886;2024-03-25T02:45:09;76566.69;;;-145.10;100.00
56334;BME280;42240;53.626;55.886;2024-03-25T02:46:41;76542.97;;;-145.10;100.00
56334;BME280;42240;53.626;55.886;2024-03-25T02:48:14;76568.66;;;-145.10;100.00
56334;BME280;42240;53.626;55.886;2024-03-25T02:49:46;76560.75;;;-145.10;100.00
56334;BME280;42240;53.626;55.886;2024-03-25T02:51:19;76568.66;;;-145.10;100.00
56334;BME280;42240;53.626;55.886;2024-03-25T02:52:53;76548.88;;;-145.10;100.00
56334;BME280;42240;53.626;55.886;2024-03-25T02:54:25;76554.81;;;-145.10;100.00
56334;BME280;42240;53.626;55.886;2024-03-25T02:55:57;76560.75;;;-145.10;100.00
56334;BME280;42240;53.626;55.886;2024-03-25T02:57:28;76540.97;;;-145.10;100.00
56334;BME280;42240;53.626;55.886;2024-03-25T02:59:00;76527.13;;;-145.10;100.00
56334;BME280;42240;53.626;55.886;2024-03-25T03:00:32;76503.41;;;-145.10;100.00
56334;BME280;42240;53.626;55.886;2024-03-25T03:02:05;76548.88;;;-145.10;100.00
56334;BME280;42240;53.626;55.886;2024-03-25T03:03:37;76517.25;;;-145.10;100.00
56334;BME280;42240;53.626;55.886;2024-03-25T03:05:09;76505.38;;;-145.10;100.00
56334;BME280;42240;53.626;55.886;2024-03-25T03:06:41;76481.66;;;-145.10;100.00
56334;BME280;42240;53.626;55.886;2024-03-25T03:08:13;76483.63;;;-145.10;99.88
56334;BME280;42240;53.626;55.886;2024-03-25T03:09:44;76501.44;;;-145.10;100.00
56334;BME280;42240;53.626;55.886;2024-03-25T03:11:16;76505.38;;;-145.10;100.00
56334;BME280;42240;53.626;55.886;2024-03-25T03:12:48;76475.72;;;-145.10;100.00
56334;BME280;42240;53.626;55.886;2024-03-25T03:14:21;76459.91;;;-145.10;99.80
56334;BME280;42240;53.626;55.886;2024-03-25T03:15:53;76477.72;;;-145.10;98.50
56334;BME280;42240;53.626;55.886;2024-03-25T03:17:24;76434.19;;;-145.10;98.28
56334;BME280;42240;53.626;55.886;2024-03-25T03:18:56;76430.25;;;-145.10;97.31
56334;BME280;42240;53.626;55.886;2024-03-25T03:20:29;76444.09;;;-145.10;96.83
56334;BME280;42240;53.626;55.886;2024-03-25T03:22:00;76452.00;;;-145.10;96.83
56334;BME280;42240;53.626;55.886;2024-03-25T03:23:32;76422.34;;;-145.10;96.17
56334;BME280;42240;53.626;55.886;2024-03-25T03:25:03;76459.91;;;-145.10;95.81
56334;BME280;42240;53.626;55.886;2024-03-25T03:26:36;76493.53;;;-145.10;97.29
56334;BME280;42240;53.626;55.886;2024-03-25T03:28:08;76465.84;;;-145.10;97.92
56334;BME280;42240;53.626;55.886;2024-03-25T03:29:39;76422.34;;;-145.10;96.65
56334;BME280;42240;53.626;55.886;2024-03-25T03:31:11;76390.69;;;-145.10;95.37
56334;BME280;42240;53.626;55.886;2024-03-25T03:32:43;76402.56;;;-145.10;94.60
56334;BME280;42240;53.626;55.886;2024-03-25T03:34:14;76414.44;;;-145.10;94.19
56334;BME280;42240;53.626;55.886;2024-03-25T03:35:46;76467.81;;;-145.10;94.54
56334;BME280;42240;53.626;55.886;2024-03-25T03:37:18;76507.38;;;-145.10;95.95
56334;BME280;42240;53.626;55.886;2024-03-25T03:38:50;76457.94;;;-145.10;96.57
56334;BME280;42240;53.626;55.886;2024-03-25T03:40:23;76430.25;;;-145.10;95.01
56334;BME280;42240;53.626;55.886;2024-03-25T03:41:59;76438.16;;;-145.10;94.48
56334;BME280;42240;53.626;55.886;2024-03-25T03:43:34;76428.28;;;-145.10;93.63
56334;BME280;42240;53.626;55.886;2024-03-25T03:45:08;76434.19;;;-145.10;93.98
56334;BME280;42240;53.626;55.886;2024-03-25T03:46:41;76519.22;;;-145.10;94.03
56334;BME280;42240;53.626;55.886;2024-03-25T03:48:13;76485.63;;;-145.10;94.07
56334;BME280;42240;53.626;55.886;2024-03-25T03:49:45;76501.44;;;-145.10;94.76
56334;BME280;42240;53.626;55.886;2024-03-25T03:51:16;76459.91;;;-145.10;94.79
56334;BME280;42240;53.626;55.886;2024-03-25T03:52:48;76473.75;;;-145.10;95.01
56334;BME280;42240;53.626;55.886;2024-03-25T03:54:20;76471.78;;;-145.10;94.54
56334;BME280;42240;53.626;55.886;2024-03-25T03:55:56;76493.53;;;-145.10;93.71
56334;BME280;42240;53.626;55.886;2024-03-25T03:57:28;76497.47;;;-145.10;93.24
56334;BME280;42240;53.626;55.886;2024-03-25T03:59:00;76434.19;;;-145.10;93.37
56334;BME280;42240;53.626;55.886;2024-03-25T04:00:35;76450.03;;;-145.10;92.42
56334;BME280;42240;53.626;55.886;2024-03-25T04:02:07;76420.38;;;-145.10;91.90
56334;BME280;42240;53.626;55.886;2024-03-25T04:03:40;76382.78;;;-145.10;90.89
56334;BME280;42240;53.626;55.886;2024-03-25T04:05:12;76414.44;;;-145.10;89.65
56334;BME280;42240;53.626;55.886;2024-03-25T04:06:44;76384.78;;;-145.10;88.86
56334;BME280;42240;53.626;55.886;2024-03-25T04:08:16;76406.53;;;-145.10;88.47
56334;BME280;42240;53.626;55.886;2024-03-25T04:09:48;76357.09;;;-145.10;87.70
56334;BME280;42240;53.626;55.886;2024-03-25T04:11:20;76329.41;;;-145.10;86.63
56334;BME280;42240;53.626;55.886;2024-03-25T04:12:52;76359.06;;;-145.10;86.04
56334;BME280;42240;53.626;55.886;2024-03-25T04:14:24;76426.28;;;-145.10;86.57
56334;BME280;42240;53.626;55.886;2024-03-25T04:16:01;76315.56;;;-145.10;86.14
56334;BME280;42240;53.626;55.886;2024-03-25T04:17:33;76366.97;;;-145.10;85.23
56334;BME280;42240;53.626;55.886;2024-03-25T04:19:06;76343.25;;;-145.10;84.74
56334;BME280;42240;53.626;55.886;2024-03-25T04:20:40;76309.63;;;-145.10;83.50
56334;BME280;42240;53.626;55.886;2024-03-25T04:22:13;76303.69;;;-145.10;82.21
56334;BME280;42240;53.626;55.886;2024-03-25T04:23:45;76339.28;;;-145.10;81.87
56334;BME280;42240;53.626;55.886;2024-03-25T04:25:20;76323.47;;;-145.10;80.87
56334;BME280;42240;53.626;55.886;2024-03-25T04:26:53;76343.25;;;-145.10;81.47
56334;BME280;42240;53.626;55.886;2024-03-25T04:28:24;76333.38;;;-145.10;81.27
56334;BME280;42240;53.626;55.886;2024-03-25T04:29:56;76297.78;;;-145.10;80.31
56334;BME280;42240;53.626;55.886;2024-03-25T04:31:28;76279.97;;;-145.10;78.83
56334;BME280;42240;53.626;55.886;2024-03-25T04:33:00;76264.16;;;-145.10;78.00
56334;BME280;42240;53.626;55.886;2024-03-25T04:34:33;76254.28;;;-145.10;77.81
56334;BME280;42240;53.626;55.886;2024-03-25T04:36:05;76232.53;;;-145.10;77.34
56334;BME280;42240;53.626;55.886;2024-03-25T04:37:37;76200.88;;;-145.10;74.08
56334;BME280;42240;53.626;55.886;2024-03-25T04:39:09;76234.50;;;-145.10;72.23
56334;BME280;42240;53.626;55.886;2024-03-25T04:40:43;76252.28;;;-145.10;71.35
56334;BME280;42240;53.626;55.886;2024-03-25T04:42:15;76191.00;;;-145.10;70.71
56334;BME280;42240;53.626;55.886;2024-03-25T04:43:47;76339.28;;;-145.10;71.41
56334;BME280;42240;53.626;55.886;2024-03-25T04:45:19;76202.88;;;-145.10;71.22
56334;BME280;42240;53.626;55.886;2024-03-25T04:46:51;76200.88;;;-145.10;70.01
56334;BME280;42240;53.626;55.886;2024-03-25T04:48:23;76210.78;;;-145.10;69.68
56334;BME280;42240;53.626;55.886;2024-03-25T04:49:55;76220.66;;;-145.10;69.78
56334;BME280;42240;53.626;55.886;2024-03-25T04:51:27;76234.50;;;-145.10;70.15
56334;BME280;42240;53.626;55.886;2024-03-25T04:52:59;76246.38;;;-145.10;69.55
56334;BME280;42240;53.626;55.886;2024-03-25T04:54:31;76256.25;;;-145.10;70.92
56334;BME280;42240;53.626;55.886;2024-03-25T04:56:03;76220.66;;;-145.10;70.80
56334;BME280;42240;53.626;55.886;2024-03-25T04:57:35;76287.88;;;-145.10;70.12
56334;BME280;42240;53.626;55.886;2024-03-25T04:59:07;76272.06;;;-145.10;70.55
56334;BME280;42240;53.626;55.886;2024-03-25T05:00:40;76236.47;;;-145.10;70.34
56334;BME280;42240;53.626;55.886;2024-03-25T05:02:12;76240.44;;;-145.10;70.58
56334;BME280;42240;53.626;55.886;2024-03-25T05:03:45;76222.63;;;-145.10;69.46
56334;BME280;42240;53.626;55.886;2024-03-25T05:05:18;76228.56;;;-145.10;69.02
56334;BME280;42240;53.626;55.886;2024-03-25T05:06:50;76256.25;;;-145.10;68.69
56334;BME280;42240;53.626;55.886;2024-03-25T05:08:22;76279.97;;;-145.10;69.86
56334;BME280;42240;53.626;55.886;2024-03-25T05:09:54;76272.06;;;-145.10;67.48
56334;BME280;42240;53.626;55.886;2024-03-25T05:11:27;76311.63;;;-145.10;69.46
56334;BME280;42240;53.626;55.886;2024-03-25T05:13:02;76305.69;;;-145.10;68.82
56334;BME280;42240;53.626;55.886;2024-03-25T05:14:33;76349.19;;;-145.10;70.43
56334;BME280;42240;53.626;55.886;2024-03-25T05:16:05;76327.44;;;-145.10;70.75
56334;BME280;42240;53.626;55.886;2024-03-25T05:17:38;76388.72;;;-145.10;70.81
56334;BME280;42240;53.626;55.886;2024-03-25T05:19:10;76315.56;;;-145.10;72.18
56334;BME280;42240;53.626;55.886;2024-03-25T05:20:42;76372.91;;;-145.10;72.97
56334;BME280;42240;53.626;55.886;2024-03-25T05:22:14;76440.13;;;-145.10;73.04
56334;BME280;42240;53.626;55.886;2024-03-25T05:23:45;76343.25;;;-145.10;73.69
56334;BME280;42240;53.626;55.886;2024-03-25T05:25:18;76327.44;;;-145.10;72.13
56334;BME280;42240;53.626;55.886;2024-03-25T05:26:50;76392.69;;;-145.10;71.46
56334;BME280;42240;53.626;55.886;2024-03-25T05:28:22;76276.03;;;-145.10;70.72
56334;BME280;42240;53.626;55.886;2024-03-25T05:29:54;76260.22;;;-145.10;68.94
56334;BME280;42240;53.626;55.886;2024-03-25T05:31:27;76246.38;;;-145.10;67.70
56334;BME280;42240;53.626;55.886;2024-03-25T05:32:59;76242.41;;;-145.10;67.59
56334;BME280;42240;53.626;55.886;2024-03-25T05:34:31;76343.25;;;-145.10;66.07
56334;BME280;42240;53.626;55.886;2024-03-25T05:36:04;76240.44;;;-145.10;66.67
56334;BME280;42240;53.626;55.886;2024-03-25T05:37:36;76323.47;;;-145.10;65.74
56334;BME280;42240;53.626;55.886;2024-03-25T05:39:08;76216.72;;;-145.10;65.46
56334;BME280;42240;53.626;55.886;2024-03-25T05:40:40;76181.13;;;-145.10;64.24
56334;BME280;42240;53.626;55.886;2024-03-25T05:42:12;76149.47;;;-145.10;63.10
56334;BME280;42240;53.626;55.886;2024-03-25T05:43:44;76082.25;;;-145.10;60.99
56334;BME280;42240;53.626;55.886;2024-03-25T05:45:16;76157.38;;;-145.10;60.27
56334;BME280;42240;53.626;55.886;2024-03-25T05:46:48;76196.94;;;-145.10;60.25
56334;BME280;42240;53.626;55.886;2024-03-25T05:48:21;76191.00;;;-145.10;59.99
56334;BME280;42240;53.626;55.886;2024-03-25T05:49:52;76173.22;;;-145.10;59.58
56334;BME280;42240;53.626;55.886;2024-03-25T05:51:24;76183.09;;;-145.10;60.09
56334;BME280;42240;53.626;55.886;2024-03-25T05:52:56;76167.28;;;-145.10;59.31
56334;BME280;42240;53.626;55.886;2024-03-25T05:54:31;76157.38;;;-145.10;59.38
56334;BME280;42240;53.626;55.886;2024-03-25T05:56:03;76159.38;;;-145.10;58.97
56334;BME280;42240;53.626;55.886;2024-03-25T05:57:36;76133.66;;;-145.10;58.66
56334;BME280;42240;53.626;55.886;2024-03-25T05:59:08;76165.31;;;-145.10;58.04
56334;BME280;42240;53.626;55.886;2024-03-25T06:00:40;76185.06;;;-145.10;57.55
56334;BME280;42240;53.626;55.886;2024-03-25T06:02:12;76224.63;;;-145.10;57.32
56334;BME280;42240;53.626;55.886;2024-03-25T06:03:44;76171.22;;;-145.10;58.33
56334;BME280;42240;53.626;55.886;2024-03-25T06:05:19;76135.63;;;-145.10;57.38
56334;BME280;42240;53.626;55.886;2024-03-25T06:06:51;76165.31;;;-145.10;57.73
56334;BME280;42240;53.626;55.886;2024-03-25T06:08:23;76179.13;;;-145.10;57.32
56334;BME280;42240;53.626;55.886;2024-03-25T06:09:57;76161.34;;;-145.10;57.36
56334;BME280;42240;53.626;55.886;2024-03-25T06:11:29;76133.66;;;-145.10;57.64
56334;BME280;42240;53.626;55.886;2024-03-25T06:13:01;76149.47;;;-145.10;57.03
56334;BME280;42240;53.626;55.886;2024-03-25T06:14:33;76157.38;;;-145.10;57.09
56334;BME280;42240;53.626;55.886;2024-03-25T06:16:05;76109.94;;;-145.10;56.79
56334;BME280;42240;53.626;55.886;2024-03-25T06:17:37;76109.94;;;-145.10;56.56
56334;BME280;42240;53.626;55.886;2024-03-25T06:19:09;76131.69;;;-145.10;56.42
56334;BME280;42240;53.626;55.886;2024-03-25T06:20:48;76133.66;;;-145.10;56.24
56334;BME280;42240;53.626;55.886;2024-03-25T06:22:20;76187.03;;;-145.10;57.21
56334;BME280;42240;53.626;55.886;2024-03-25T06:23:51;76135.63;;;-145.10;56.55
56334;BME280;42240;53.626;55.886;2024-03-25T06:25:24;76139.59;;;-145.10;56.24
56334;BME280;42240;53.626;55.886;2024-03-25T06:26:55;76157.38;;;-145.10;56.19
56334;BME280;42240;53.626;55.886;2024-03-25T06:28:29;76149.47;;;-145.10;56.30
56334;BME280;42240;53.626;55.886;2024-03-25T06:30:01;76157.38;;;-145.10;56.07
56334;BME280;42240;53.626;55.886;2024-03-25T06:31:51;76107.97;;;-145.10;55.87
56334;BME280;42240;53.626;55.886;2024-03-25T06:33:41;76074.34;;;-145.10;55.24
56334;BME280;42240;53.626;55.886;2024-03-25T06:35:31;76098.06;;;-145.10;54.98
56334;BME280;42240;53.626;55.886;2024-03-25T06:37:03;76050.63;;;-145.10;54.30
56334;BME280;42240;53.626;55.886;2024-03-25T06:38:35;76068.41;;;-145.10;54.33
56334;BME280;42240;53.626;55.886;2024-03-25T06:40:08;76054.56;;;-145.10;53.83
56334;BME280;42240;53.626;55.886;2024-03-25T06:41:40;76015.03;;;-145.10;53.67
56334;BME280;42240;53.626;55.886;2024-03-25T06:43:12;76015.03;;;-145.10;53.53
56334;BME280;42240;53.626;55.886;2024-03-25T06:44:45;75983.41;;;-145.10;52.78
56334;BME280;42240;53.626;55.886;2024-03-25T06:46:21;76090.16;;;-145.10;52.66
56334;BME280;42240;53.626;55.886;2024-03-25T06:47:53;76015.03;;;-145.10;52.99
56334;BME280;42240;53.626;55.886;2024-03-25T06:49:25;75991.31;;;-145.10;52.25
56334;BME280;42240;53.626;55.886;2024-03-25T06:50:58;75933.97;;;-145.10;52.12
56334;BME280;42240;53.626;55.886;2024-03-25T06:52:30;75989.34;;;-145.10;51.09
56334;BME280;42240;53.626;55.886;2024-03-25T06:54:02;75971.53;;;-145.10;51.49
56334;BME280;42240;53.626;55.886;2024-03-25T06:55:34;75959.69;;;-145.10;51.59
56334;BME280;42240;53.626;55.886;2024-03-25T06:57:06;75935.94;;;-145.10;50.96
56334;BME280;42240;53.626;55.886;2024-03-25T06:58:38;75973.50;;;-145.10;51.02
56334;BME280;42240;53.626;55.886;2024-03-25T07:00:11;75947.81;;;-145.10;50.90
56334;BME280;42240;53.626;55.886;2024-03-25T07:01:44;75900.38;;;-145.10;50.77
56334;BME280;42240;53.626;55.886;2024-03-25T07:03:17;75886.53;;;-145.10;49.84
56334;BME280;42240;53.626;55.886;2024-03-25T07:04:49;75924.09;;;-145.10;50.12
56334;BME280;42240;53.626;55.886;2024-03-25T07:06:21;75930.03;;;-145.10;49.58
56334;BME280;42240;53.626;55.886;2024-03-25T07:07:52;75959.69;;;-145.10;49.52
56334;BME280;42240;53.626;55.886;2024-03-25T07:09:24;75977.47;;;-145.10;50.52
56334;BME280;42240;53.626;55.886;2024-03-25T07:10:57;75912.22;;;-145.10;50.36
56334;BME280;42240;53.626;55.886;2024-03-25T07:12:31;75920.13;;;-145.10;50.07
56334;BME280;42240;53.626;55.886;2024-03-25T07:14:02;75906.28;;;-145.10;49.64
56334;BME280;42240;53.626;55.886;2024-03-25T07:15:35;75943.88;;;-145.10;49.66
56334;BME280;42240;53.626;55.886;2024-03-25T07:17:06;75852.91;;;-145.10;49.37
56334;BME280;42240;53.626;55.886;2024-03-25T07:18:39;75850.94;;;-145.10;48.98
56334;BME280;42240;53.626;55.886;2024-03-25T07:20:10;75848.97;;;-145.10;48.93
56334;BME280;42240;53.626;55.886;2024-03-25T07:21:42;75880.59;;;-145.10;48.93
56334;BME280;42240;53.626;55.886;2024-03-25T07:23:14;75967.59;;;-145.10;49.04
56334;BME280;42240;53.626;55.886;2024-03-25T07:24:47;75912.22;;;-145.10;49.02
56334;BME280;42240;53.626;55.886;2024-03-25T07:26:18;75880.59;;;-145.10;48.69
56334;BME280;42240;53.626;55.886;2024-03-25T07:27:51;75908.28;;;-145.10;48.92
56334;BME280;42240;53.626;55.886;2024-03-25T07:29:23;75965.59;;;-145.10;49.01
56334;BME280;42240;53.626;55.886;2024-03-25T07:30:55;75926.06;;;-145.10;49.03
56334;BME280;42240;53.626;55.886;2024-03-25T07:32:27;75908.28;;;-145.10;48.95
56334;BME280;42240;53.626;55.886;2024-03-25T07:33:59;75890.47;;;-145.10;48.44
56334;BME280;42240;53.626;55.886;2024-03-25T07:35:31;75890.47;;;-145.10;48.57
56334;BME280;42240;53.626;55.886;2024-03-25T07:37:03;75963.63;;;-145.10;49.01
56334;BME280;42240;53.626;55.886;2024-03-25T07:38:35;75890.47;;;-145.10;48.85
56334;BME280;42240;53.626;55.886;2024-03-25T07:40:07;75908.28;;;-145.10;48.58
56334;BME280;42240;53.626;55.886;2024-03-25T07:41:40;75951.78;;;-145.10;48.78
56334;BME280;42240;53.626;55.886;2024-03-25T07:43:12;75896.41;;;-145.10;48.53
56334;BME280;42240;53.626;55.886;2024-03-25T07:44:44;75937.94;;;-145.10;48.31
56334;BME280;42240;53.626;55.886;2024-03-25T07:46:17;75904.31;;;-145.10;48.56
56334;BME280;42240;53.626;55.886;2024-03-25T07:47:48;75900.38;;;-145.10;48.18
56334;BME280;42240;53.626;55.886;2024-03-25T07:49:20;75896.41;;;-145.10;48.33
56334;BME280;42240;53.626;55.886;2024-03-25T07:50:52;75860.81;;;-145.10;47.92
56334;BME280;42240;53.626;55.886;2024-03-25T07:52:23;75906.28;;;-145.10;47.67